Time;durP1;ratioP1;P1;durP2;ratioP2;P2;SDS_P1;SDS_P2;PMS_P1;PMS_P2;Temp;Humidity;BMP_temperature;BMP_pressure;BME280_temperature;BME280_humidity;BME280_pressure;Samples;Min_cycle;Max_cycle;Signal;HPM_P1;HPM_P2
2022/01/10 00:00:23;;;;;;;13.00;5.32;;;;;;;-141.50;100.00;63355.56;5061801;28;20122;-80
2022/01/10 00:02:53;;;;;;;13.60;5.00;;;;;;;-141.50;100.00;63355.56;5078447;28;20048;-79
2022/01/10 00:05:21;;;;;;;14.68;5.32;;;;;;;-141.50;100.00;63355.56;5086140;28;20048;-80
2022/01/10 00:07:47;;;;;;;12.10;5.20;;;;;;;-141.50;100.00;63355.56;5086871;28;20041;-81
2022/01/10 00:10:15;;;;;;;10.15;5.35;;;;;;;-141.50;100.00;63355.56;5087013;28;20052;-80
2022/01/10 00:12:42;;;;;;;11.68;5.03;;;;;;;-141.50;100.00;63355.56;5086149;28;20044;-80
2022/01/10 00:15:10;;;;;;;13.80;5.57;;;;;;;-141.50;100.00;63355.56;5081661;28;20082;-80
2022/01/10 00:17:38;;;;;;;13.05;5.20;;;;;;;-141.50;100.00;63355.56;5069655;28;20050;-80
2022/01/10 00:20:07;;;;;;;15.65;5.95;;;;;;;-141.50;100.00;63355.56;5086192;28;20052;-80
2022/01/10 00:22:34;;;;;;;10.85;4.95;;;;;;;-141.50;100.00;63355.56;5050211;28;20053;-81
2022/01/10 00:25:01;;;;;;;12.95;5.10;;;;;;;-141.50;100.00;63355.56;5050401;28;20056;-80
2022/01/10 00:27:27;;;;;;;16.35;5.50;;;;;;;-141.50;100.00;63355.56;5076188;28;20048;-80
2022/01/10 00:36:35;;;;;;;12.95;5.03;;;;;;;-141.50;100.00;63355.56;3172363;26;20064;-78
2022/01/10 00:41:29;;;;;;;13.77;5.55;;;;;;;-141.50;100.00;63355.56;5039593;28;20500;-80
2022/01/10 00:43:57;;;;;;;13.52;5.15;;;;;;;-141.50;100.00;63355.56;5068698;28;20053;-79
2022/01/10 00:46:24;;;;;;;18.45;5.85;;;;;;;-141.50;100.00;63355.56;5049372;28;20057;-78
2022/01/10 00:48:51;;;;;;;11.73;5.22;;;;;;;-141.50;100.00;63355.56;5051871;28;20056;-77
2022/01/10 00:51:18;;;;;;;12.63;5.43;;;;;;;-141.50;100.00;63355.56;5057570;28;20059;-78
2022/01/10 00:53:47;;;;;;;16.10;5.55;;;;;;;-141.50;100.00;63355.56;5054815;28;20104;-78
2022/01/10 00:56:14;;;;;;;14.98;5.35;;;;;;;-141.50;100.00;63355.56;5053329;28;20057;-80
2022/01/10 00:58:41;;;;;;;14.05;5.82;;;;;;;-141.50;100.00;63355.56;5056241;28;20253;-80
2022/01/10 01:01:08;;;;;;;18.35;5.32;;;;;;;-141.50;100.00;63355.56;5055958;28;20037;-80
2022/01/10 01:03:34;;;;;;;13.82;5.22;;;;;;;-141.50;100.00;63355.56;5055779;28;20060;-80
2022/01/10 01:06:01;;;;;;;19.05;5.60;;;;;;;-141.50;100.00;63355.56;5051825;28;20084;-79
2022/01/10 01:08:30;;;;;;;12.32;5.15;;;;;;;-141.50;100.00;63355.56;5052987;28;20034;-79
2022/01/10 01:13:52;;;;;;;13.70;5.10;;;;;;;-141.50;100.00;63355.56;5055375;28;20075;-80
2022/01/10 01:16:30;;;;;;;12.43;5.45;;;;;;;-141.50;100.00;63355.56;5055263;28;20037;-80
2022/01/10 01:24:21;;;;;;;14.02;5.50;;;;;;;-141.50;100.00;63355.56;5042133;28;20187;-80
2022/01/10 01:26:50;;;;;;;14.25;5.53;;;;;;;-141.50;100.00;63355.56;5040153;28;20088;-79
2022/01/10 01:29:22;;;;;;;22.15;5.63;;;;;;;-141.50;100.00;63355.56;5041194;28;20088;-80
2022/01/10 01:31:49;;;;;;;11.93;5.72;;;;;;;-141.50;100.00;63355.56;5040246;28;20100;-79
2022/01/10 01:34:18;;;;;;;13.73;5.68;;;;;;;-141.50;100.00;63355.56;5040374;28;20049;-78
2022/01/10 01:36:49;;;;;;;19.35;6.63;;;;;;;-141.50;100.00;63355.56;5040635;28;20107;-79
2022/01/10 01:39:20;;;;;;;26.73;6.75;;;;;;;-141.50;100.00;63355.56;5038335;28;20061;-78
2022/01/10 01:41:49;;;;;;;18.75;6.22;;;;;;;-141.50;100.00;63355.56;5037900;28;20485;-79
2022/01/10 01:44:16;;;;;;;16.08;5.70;;;;;;;-141.50;100.00;63355.56;5036786;28;20103;-79
2022/01/10 01:46:44;;;;;;;15.07;5.32;;;;;;;-141.50;100.00;63355.56;5043049;28;20045;-80
2022/01/10 01:49:12;;;;;;;13.98;6.05;;;;;;;-141.50;100.00;63355.56;5044761;28;20072;-79
2022/01/10 01:51:39;;;;;;;18.05;6.28;;;;;;;-141.50;100.00;63355.56;5042078;28;20049;-79
2022/01/10 01:54:07;;;;;;;11.90;5.75;;;;;;;-141.50;100.00;63355.56;5047137;28;20071;-78
2022/01/10 01:56:34;;;;;;;20.17;6.10;;;;;;;-141.50;100.00;63355.56;5051686;28;20179;-79
2022/01/10 01:59:01;;;;;;;17.33;5.78;;;;;;;-141.50;100.00;63355.56;5045979;28;20310;-79
2022/01/10 02:01:28;;;;;;;14.73;5.35;;;;;;;-141.50;100.00;63355.56;5043372;28;20054;-79
2022/01/10 02:03:55;;;;;;;17.55;6.25;;;;;;;-141.50;100.00;63355.56;5041958;28;20124;-79
2022/01/10 02:06:21;;;;;;;21.20;6.30;;;;;;;-141.50;100.00;63355.56;5043055;28;20080;-79
2022/01/10 02:08:48;;;;;;;16.23;6.38;;;;;;;-141.50;100.00;63355.56;5039971;28;20160;-79
2022/01/10 02:11:15;;;;;;;17.58;5.30;;;;;;;-141.50;100.00;63355.56;5043369;28;20056;-79
2022/01/10 02:13:44;;;;;;;18.73;6.05;;;;;;;-141.50;100.00;63355.56;5042380;28;20049;-78
2022/01/10 02:16:16;;;;;;;20.85;6.15;;;;;;;-141.50;100.00;63355.56;5044269;28;20053;-80
2022/01/10 02:18:43;;;;;;;15.85;6.15;;;;;;;-141.50;100.00;63355.56;5040739;28;20065;-79
2022/01/10 02:21:10;;;;;;;14.65;6.03;;;;;;;-141.50;100.00;63355.56;5043199;28;20053;-79
2022/01/10 02:23:37;;;;;;;18.00;5.95;;;;;;;-141.50;100.00;63355.56;5044184;28;20143;-79
2022/01/10 02:26:04;;;;;;;14.43;6.28;;;;;;;-141.50;100.00;63355.56;5043266;28;20053;-81
2022/01/10 02:28:32;;;;;;;20.48;6.55;;;;;;;-141.50;100.00;63355.56;5044290;28;20063;-79
2022/01/10 02:30:59;;;;;;;18.20;6.10;;;;;;;-141.50;100.00;63355.56;5044670;28;20054;-80
2022/01/10 02:33:28;;;;;;;18.38;6.55;;;;;;;-141.50;100.00;63355.56;5043976;28;20068;-79
2022/01/10 02:36:09;;;;;;;;;;;;;;;;;;;;;
2022/01/10 02:38:27;;;;;;;18.95;7.05;;;;;;;-141.50;100.00;63355.56;5039893;28;20072;-80
2022/01/10 02:40:54;;;;;;;17.65;6.43;;;;;;;-141.50;100.00;63355.56;5045032;28;20049;-80
2022/01/10 02:43:21;;;;;;;20.40;6.50;;;;;;;-141.50;100.00;63355.56;5044582;28;20057;-79
2022/01/10 02:45:48;;;;;;;15.30;6.90;;;;;;;-141.50;100.00;63355.56;5042505;28;20583;-78
2022/01/10 02:48:15;;;;;;;18.88;6.40;;;;;;;-141.50;100.00;63355.56;5041434;28;20115;-79
2022/01/10 02:50:42;;;;;;;19.95;7.05;;;;;;;-141.50;100.00;63355.56;5039408;28;20057;-79
2022/01/10 02:53:08;;;;;;;17.92;7.22;;;;;;;-141.50;100.00;63355.56;5038650;28;20049;-79
2022/01/10 02:55:35;;;;;;;16.13;6.97;;;;;;;-141.50;100.00;63355.56;5036228;28;20065;-79
2022/01/10 02:58:01;;;;;;;23.42;7.35;;;;;;;-141.50;100.00;63355.56;5035577;28;20057;-78
2022/01/10 03:00:28;;;;;;;19.88;7.13;;;;;;;-141.50;100.00;63355.56;5032462;28;20041;-78
2022/01/10 03:02:55;;;;;;;21.58;7.10;;;;;;;-141.50;100.00;63355.56;5032698;28;20061;-79
2022/01/10 03:05:24;;;;;;;14.98;6.53;;;;;;;-141.50;100.00;63355.56;5037117;28;20049;-80
2022/01/10 03:07:53;;;;;;;25.15;7.13;;;;;;;-141.50;100.00;63355.56;5037401;28;20056;-79
2022/01/10 03:10:20;;;;;;;14.55;6.70;;;;;;;-141.50;100.00;63355.56;5041126;28;20050;-81
2022/01/10 03:12:48;;;;;;;17.17;7.22;;;;;;;-141.50;100.00;63355.56;5040848;28;20049;-80
2022/01/10 03:15:14;;;;;;;23.02;7.72;;;;;;;-141.50;100.00;63355.56;5038813;28;20049;-80
2022/01/10 03:17:41;;;;;;;22.73;7.88;;;;;;;-141.50;100.00;63355.56;5038261;28;20053;-80
2022/01/10 03:20:09;;;;;;;18.75;7.80;;;;;;;-141.50;100.00;63355.56;5039470;28;20091;-80
2022/01/10 03:22:36;;;;;;;22.60;7.95;;;;;;;-141.50;100.00;63355.56;5039276;28;20056;-80
2022/01/10 03:25:04;;;;;;;21.27;8.15;;;;;;;-141.50;100.00;63355.56;5044511;28;20095;-79
2022/01/10 03:27:31;;;;;;;20.10;8.23;;;;;;;-141.50;100.00;63355.56;5047123;28;20121;-78
2022/01/10 03:29:57;;;;;;;22.08;7.43;;;;;;;-141.50;100.00;63355.56;5046644;28;20072;-80
2022/01/10 03:32:25;;;;;;;17.75;8.18;;;;;;;-141.50;100.00;63355.56;5044554;28;20049;-80
2022/01/10 03:34:51;;;;;;;20.00;7.57;;;;;;;-141.50;100.00;63355.56;5044698;28;20053;-80
2022/01/10 03:37:18;;;;;;;20.45;8.13;;;;;;;-141.50;100.00;63355.56;5042872;28;20063;-79
2022/01/10 03:39:45;;;;;;;20.88;7.85;;;;;;;-141.50;100.00;63355.56;5041590;28;20057;-79
2022/01/10 03:42:12;;;;;;;22.75;8.55;;;;;;;-141.50;100.00;63355.56;5040267;28;20050;-79
2022/01/10 03:44:39;;;;;;;22.20;7.55;;;;;;;-141.50;100.00;63355.56;5041641;28;20243;-80
2022/01/10 03:47:06;;;;;;;30.65;7.97;;;;;;;-141.50;100.00;63355.56;5040317;28;20077;-77
2022/01/10 03:49:33;;;;;;;18.08;7.95;;;;;;;-141.50;100.00;63355.56;5042027;28;20045;-79
2022/01/10 03:52:00;;;;;;;23.13;8.77;;;;;;;-141.50;100.00;63355.56;5040645;28;20053;-80
2022/01/10 03:54:26;;;;;;;18.33;7.72;;;;;;;-141.50;100.00;63355.56;5039775;28;20103;-80
2022/01/10 03:56:53;;;;;;;23.67;8.52;;;;;;;-141.50;100.00;63355.56;5040022;28;20107;-80
2022/01/10 03:59:19;;;;;;;20.92;8.38;;;;;;;-141.50;100.00;63355.56;5042633;28;20253;-80
2022/01/10 04:01:46;;;;;;;24.40;9.07;;;;;;;-141.50;100.00;63355.56;5050984;28;20045;-79
2022/01/10 04:04:13;;;;;;;23.98;7.85;;;;;;;-141.50;100.00;63355.56;5049189;28;20073;-79
2022/01/10 04:06:41;;;;;;;21.13;9.35;;;;;;;-141.50;100.00;63355.56;5035227;28;20045;-78
2022/01/10 04:09:08;;;;;;;20.83;8.55;;;;;;;-141.50;100.00;63355.56;5036525;28;20050;-80
2022/01/10 04:11:34;;;;;;;26.48;8.85;;;;;;;-141.50;100.00;63355.56;5038501;28;20104;-79
2022/01/10 04:14:01;;;;;;;20.83;8.85;;;;;;;-141.50;100.00;63355.56;5038506;28;20111;-79
2022/01/10 04:16:28;;;;;;;27.40;8.57;;;;;;;-141.50;100.00;63355.56;5037029;28;20108;-79
2022/01/10 04:18:54;;;;;;;23.65;8.60;;;;;;;-141.50;100.00;63355.56;5039224;28;20092;-79
2022/01/10 04:21:21;;;;;;;25.77;8.77;;;;;;;-141.50;100.00;63355.56;5046262;28;20080;-79
2022/01/10 04:23:48;;;;;;;22.83;9.48;;;;;;;-141.50;100.00;63355.56;5053724;28;20121;-79
2022/01/10 04:26:16;;;;;;;23.80;8.38;;;;;;;-141.50;100.00;63355.56;5047924;28;20053;-80
2022/01/10 04:28:42;;;;;;;26.27;9.50;;;;;;;-141.50;100.00;63355.56;5043508;28;20057;-79
2022/01/10 04:31:11;;;;;;;28.83;9.35;;;;;;;-141.50;100.00;63355.56;5044516;28;20060;-79
2022/01/10 04:33:38;;;;;;;25.88;8.68;;;;;;;-141.50;100.00;63355.56;5043421;28;20068;-80
2022/01/10 04:36:05;;;;;;;22.48;9.23;;;;;;;-141.50;100.00;63355.56;5043090;28;20049;-79
2022/01/10 04:38:32;;;;;;;31.60;9.70;;;;;;;-141.50;100.00;63355.56;5043612;28;20404;-79
2022/01/10 04:40:59;;;;;;;21.15;8.75;;;;;;;-141.50;100.00;63355.56;5044816;28;20116;-79
2022/01/10 04:43:25;;;;;;;24.88;9.23;;;;;;;-141.50;100.00;63355.56;5042468;28;20045;-79
2022/01/10 04:45:58;;;;;;;25.63;9.73;;;;;;;-141.50;100.00;63355.56;5040263;28;20045;-79
2022/01/10 04:48:25;;;;;;;21.90;9.07;;;;;;;-141.50;100.00;63355.56;5040133;28;20045;-79
2022/01/10 04:53:18;;;;;;;25.42;10.27;;;;;;;-141.50;100.00;63355.56;5038873;28;20052;-79
2022/01/10 04:55:44;;;;;;;22.85;9.45;;;;;;;-141.50;100.00;63355.56;5043044;28;20049;-79
2022/01/10 04:58:15;;;;;;;24.00;9.73;;;;;;;-141.50;100.00;63355.56;5043564;28;20061;-79
2022/01/10 05:00:41;;;;;;;23.08;9.48;;;;;;;-141.50;100.00;63355.56;5039570;28;20045;-79
2022/01/10 05:03:08;;;;;;;21.92;8.85;;;;;;;-141.50;100.00;63355.56;5043210;28;20063;-79
2022/01/10 05:05:35;;;;;;;22.92;9.27;;;;;;;-141.50;100.00;63355.56;5039136;28;20116;-79
2022/01/10 05:08:01;;;;;;;25.65;9.63;;;;;;;-141.50;100.00;63355.56;5041895;28;20333;-79
2022/01/10 05:10:28;;;;;;;24.08;9.75;;;;;;;-141.50;100.00;63355.56;5043226;28;20045;-79
2022/01/10 05:12:55;;;;;;;23.38;9.25;;;;;;;-141.50;100.00;63355.56;5043251;28;20057;-79
2022/01/10 05:15:21;;;;;;;31.38;8.88;;;;;;;-141.50;100.00;63355.56;5039307;28;20045;-78
2022/01/10 05:17:48;;;;;;;22.08;9.90;;;;;;;-141.50;100.00;63355.56;5033520;28;20042;-79
2022/01/10 05:20:14;;;;;;;24.42;9.63;;;;;;;-141.50;100.00;63355.56;5023305;28;20045;-78
2022/01/10 05:22:41;;;;;;;27.17;9.38;;;;;;;-141.50;100.00;63355.56;5022615;28;20115;-79
2022/01/10 05:25:08;;;;;;;24.88;9.75;;;;;;;-141.50;100.00;63355.56;5020935;28;20061;-79
2022/01/10 05:27:34;;;;;;;23.70;10.13;;;;;;;-141.50;100.00;63355.56;5020234;28;20049;-77
2022/01/10 05:30:02;;;;;;;25.20;9.98;;;;;;;-141.50;100.00;63355.56;5028782;28;20072;-79
2022/01/10 05:32:29;;;;;;;31.02;10.43;;;;;;;-141.50;100.00;63355.56;5036940;28;20053;-76
2022/01/10 05:34:55;;;;;;;25.67;10.20;;;;;;;-141.50;100.00;63355.56;5031707;28;20053;-77
2022/01/10 05:37:22;;;;;;;31.13;10.13;;;;;;;-141.50;100.00;63355.56;5032815;28;20053;-77
2022/01/10 05:39:48;;;;;;;21.42;9.40;;;;;;;-141.50;100.00;63355.56;5032250;28;20536;-77
2022/01/10 05:42:16;;;;;;;32.95;9.60;;;;;;;-141.50;100.00;63355.56;5041822;28;20061;-78
2022/01/10 05:44:43;;;;;;;21.83;9.32;;;;;;;-141.50;100.00;63355.56;5041763;28;20072;-78
2022/01/10 05:47:09;;;;;;;21.90;9.23;;;;;;;-141.50;100.00;63355.56;5037717;28;20049;-78
2022/01/10 05:49:37;;;;;;;27.20;10.25;;;;;;;-141.50;100.00;63355.56;5040223;28;20611;-78
2022/01/10 05:52:04;;;;;;;29.50;9.60;;;;;;;-141.50;100.00;63355.56;5037435;28;20054;-80
2022/01/10 05:54:31;;;;;;;28.60;10.20;;;;;;;-141.50;100.00;63355.56;5044324;28;20115;-80
2022/01/10 05:57:00;;;;;;;24.73;10.00;;;;;;;-141.50;100.00;63355.56;5033569;28;20478;-79
2022/01/10 05:59:27;;;;;;;23.92;10.07;;;;;;;-141.50;100.00;63355.56;5030771;28;20543;-79
2022/01/10 06:01:53;;;;;;;33.63;11.18;;;;;;;-141.50;100.00;63355.56;5033028;28;20060;-78
2022/01/10 06:04:20;;;;;;;27.38;11.70;;;;;;;-141.50;100.00;63355.56;5034498;28;20456;-79
2022/01/10 06:06:46;;;;;;;27.15;10.90;;;;;;;-141.50;100.00;63355.56;5026640;28;20057;-79
2022/01/10 06:09:13;;;;;;;28.08;11.45;;;;;;;-141.50;100.00;63355.56;5014914;28;20104;-79
2022/01/10 06:11:40;;;;;;;39.92;12.32;;;;;;;-141.50;100.00;63355.56;5013280;28;20083;-79
2022/01/10 06:14:07;;;;;;;34.10;12.48;;;;;;;-141.50;100.00;63355.56;5013367;28;20551;-78
2022/01/10 06:16:37;;;;;;;28.77;12.48;;;;;;;-141.50;100.00;63355.56;5025976;28;20053;-80
2022/01/10 06:19:03;;;;;;;36.60;11.82;;;;;;;-141.50;100.00;63355.56;5046788;28;20049;-78
2022/01/10 06:21:30;;;;;;;32.50;12.73;;;;;;;-141.50;100.00;63355.56;5035693;28;20060;-78
2022/01/10 06:23:56;;;;;;;31.65;12.23;;;;;;;-141.50;100.00;63355.56;5053086;28;20057;-79
2022/01/10 06:26:23;;;;;;;31.92;12.07;;;;;;;-141.50;100.00;63355.56;5050776;28;20390;-78
2022/01/10 06:28:50;;;;;;;36.20;12.77;;;;;;;-141.50;100.00;63355.56;5044332;28;20097;-76
2022/01/10 06:31:16;;;;;;;32.33;13.13;;;;;;;-141.50;100.00;63355.56;5037132;28;20125;-78
2022/01/10 06:33:43;;;;;;;37.80;13.60;;;;;;;-141.50;100.00;63355.56;5037011;28;20073;-79
2022/01/10 06:36:09;;;;;;;34.42;14.32;;;;;;;-141.50;100.00;63355.56;5038002;28;20054;-79
2022/01/10 06:38:36;;;;;;;37.30;14.13;;;;;;;-141.50;100.00;63355.56;5044947;28;20076;-78
2022/01/10 06:41:03;;;;;;;41.10;14.05;;;;;;;-141.50;100.00;63355.56;5047607;28;20041;-78
2022/01/10 06:43:30;;;;;;;48.35;14.98;;;;;;;-141.50;100.00;63355.56;5051320;28;20053;-80
2022/01/10 06:45:56;;;;;;;51.65;15.05;;;;;;;-141.50;100.00;63355.56;5045469;28;20053;-78
2022/01/10 06:48:23;;;;;;;35.78;13.85;;;;;;;-141.50;100.00;63355.56;5042588;28;20744;-79
2022/01/10 06:50:50;;;;;;;36.58;14.23;;;;;;;-141.50;100.00;63355.56;5031625;28;20037;-80
2022/01/10 06:53:17;;;;;;;51.33;15.63;;;;;;;-141.50;100.00;63355.56;5042291;28;20053;-80
2022/01/10 06:55:44;;;;;;;42.55;15.00;;;;;;;-141.50;100.00;63355.56;5034996;28;20574;-80
2022/01/10 06:58:11;;;;;;;33.97;14.80;;;;;;;-141.50;100.00;63355.56;5039440;28;20057;-78
2022/01/10 07:00:38;;;;;;;42.67;15.25;;;;;;;-141.50;100.00;63355.56;5038219;28;20589;-78
2022/01/10 07:03:05;;;;;;;40.05;14.40;;;;;;;-141.50;100.00;63355.56;5031426;28;20053;-80
2022/01/10 07:05:32;;;;;;;43.60;15.30;;;;;;;-141.50;100.00;63355.56;5036477;28;20056;-80
2022/01/10 07:07:59;;;;;;;39.22;15.55;;;;;;;-141.50;100.00;63355.56;5036269;28;20095;-80
2022/01/10 07:10:25;;;;;;;31.50;15.77;;;;;;;-141.50;100.00;63355.56;5034967;28;20404;-80
2022/01/10 07:12:53;;;;;;;43.70;15.27;;;;;;;-141.50;100.00;63355.56;5041505;28;20049;-80
2022/01/10 07:15:20;;;;;;;42.45;15.63;;;;;;;-141.50;100.00;63355.56;5046575;28;20107;-78
2022/01/10 07:17:47;;;;;;;40.13;14.93;;;;;;;-141.50;100.00;63355.56;5044652;28;20095;-80
2022/01/10 07:20:13;;;;;;;43.90;16.17;;;;;;;-141.50;100.00;63355.56;5039098;28;20053;-79
2022/01/10 07:22:40;;;;;;;45.33;15.45;;;;;;;-141.50;100.00;63355.56;5037010;28;20483;-80
2022/01/10 07:25:07;;;;;;;55.40;16.55;;;;;;;-141.50;100.00;63355.56;5036603;28;20046;-79
2022/01/10 07:27:34;;;;;;;43.38;16.25;;;;;;;-141.50;100.00;63355.56;5037429;28;20107;-80
2022/01/10 07:30:02;;;;;;;50.42;16.15;;;;;;;-141.50;100.00;63355.56;5042918;28;20033;-79
2022/01/10 07:32:29;;;;;;;30.85;14.85;;;;;;;-141.50;100.00;63355.56;5054456;28;20060;-80
2022/01/10 07:34:57;;;;;;;39.75;15.50;;;;;;;-141.50;100.00;63355.56;5044874;28;20574;-80
2022/01/10 07:37:24;;;;;;;51.08;16.88;;;;;;;-141.50;100.00;63355.56;5038307;28;20059;-80
2022/01/10 07:39:51;;;;;;;42.67;16.67;;;;;;;-141.50;100.00;63355.56;5033891;28;20080;-80
2022/01/10 07:42:17;;;;;;;44.85;18.52;;;;;;;-141.50;100.00;63355.56;5030872;28;20508;-79
2022/01/10 07:44:44;;;;;;;45.25;16.77;;;;;;;-141.50;100.00;63355.56;5029175;28;20103;-79
2022/01/10 07:47:11;;;;;;;50.05;17.58;;;;;;;-141.50;100.00;63355.56;5029642;28;20081;-80
2022/01/10 07:49:37;;;;;;;43.50;17.15;;;;;;;-141.50;100.00;63355.56;5031184;28;20045;-80
2022/01/10 07:52:04;;;;;;;48.05;17.33;;;;;;;-141.50;100.00;63355.56;5031173;28;20046;-79
2022/01/10 07:54:31;;;;;;;41.30;16.33;;;;;;;-141.50;100.00;63355.56;5035233;28;20077;-79
2022/01/10 07:56:58;;;;;;;38.63;16.40;;;;;;;-141.50;100.00;63355.56;5039362;28;20045;-79
2022/01/10 07:59:25;;;;;;;38.63;15.77;;;;;;;-141.50;100.00;63355.56;5036583;28;20057;-79
2022/01/10 08:01:52;;;;;;;47.33;15.25;;;;;;;-141.50;100.00;63355.56;5036742;28;20103;-78
2022/01/10 08:04:19;;;;;;;39.22;16.00;;;;;;;-141.50;100.00;63355.56;5039244;28;20373;-80
2022/01/10 08:06:45;;;;;;;45.45;16.67;;;;;;;-141.50;100.00;63355.56;5037120;28;20126;-79
2022/01/10 08:09:12;;;;;;;43.13;15.88;;;;;;;-141.50;100.00;63355.56;5039391;28;20049;-78
2022/01/10 08:11:39;;;;;;;41.25;15.88;;;;;;;-141.50;100.00;63355.56;5043825;28;20723;-77
2022/01/10 08:14:06;;;;;;;42.47;15.45;;;;;;;-141.50;100.00;63355.56;5035809;28;20915;-80
2022/01/10 08:16:33;;;;;;;41.45;16.30;;;;;;;-141.50;100.00;63355.56;5040476;28;20057;-79
2022/01/10 08:18:59;;;;;;;46.25;16.27;;;;;;;-141.50;100.00;63355.56;5027299;28;20049;-76
2022/01/10 08:21:26;;;;;;;38.65;17.17;;;;;;;-141.50;100.00;63355.56;5038480;28;20171;-79
2022/01/10 08:23:52;;;;;;;39.97;16.13;;;;;;;-141.50;100.00;63355.56;5050587;28;20143;-78
2022/01/10 08:26:20;;;;;;;48.05;18.67;;;;;;;-141.50;100.00;63355.56;5042254;28;20062;-79
2022/01/10 08:28:47;;;;;;;44.97;17.95;;;;;;;-141.50;100.00;63355.56;5035423;28;20045;-79
2022/01/10 08:31:14;;;;;;;43.33;17.67;;;;;;;-141.50;100.00;63355.56;5035949;28;20544;-79
2022/01/10 08:33:41;;;;;;;45.70;17.80;;;;;;;-141.50;100.00;63355.56;5031747;28;20080;-79
2022/01/10 08:36:08;;;;;;;44.83;17.13;;;;;;;-141.50;100.00;63355.56;5032609;28;20050;-79
2022/01/10 08:38:35;;;;;;;36.05;15.70;;;;;;;-141.50;100.00;63355.56;5028989;28;20234;-78
2022/01/10 08:41:09;;;;;;;40.88;15.45;;;;;;;-141.50;100.00;63355.56;5006730;28;20045;-76
2022/01/10 08:43:35;;;;;;;41.65;14.95;;;;;;;-141.50;100.00;63355.56;5029231;28;20069;-79
2022/01/10 08:46:03;;;;;;;42.40;15.18;;;;;;;-141.50;100.00;63355.56;5026337;28;20108;-79
2022/01/10 08:48:42;;;;;;;40.10;15.38;;;;;;;-141.50;100.00;63355.56;5035568;28;20049;-77
2022/01/10 08:51:08;;;;;;;39.47;14.30;;;;;;;-141.50;100.00;63355.56;5040592;28;20397;-79
2022/01/10 08:53:35;;;;;;;37.20;14.23;;;;;;;-141.50;100.00;63355.56;5027609;28;20537;-77
2022/01/10 08:56:02;;;;;;;46.00;14.20;;;;;;;-141.50;100.00;63355.56;5037860;28;20084;-78
2022/01/10 08:58:32;;;;;;;46.67;14.45;;;;;;;-141.50;100.00;63355.56;5026056;28;20045;-79
2022/01/10 09:01:00;;;;;;;34.25;13.93;;;;;;;-141.50;100.00;63355.56;5017382;28;20616;-79
2022/01/10 09:03:27;;;;;;;41.60;13.93;;;;;;;-141.50;100.00;63355.56;5031545;28;20099;-79
2022/01/10 09:05:55;;;;;;;39.65;13.85;;;;;;;-141.50;100.00;63355.56;5033481;28;20056;-78
2022/01/10 09:08:25;;;;;;;33.17;13.93;;;;;;;-141.50;100.00;63355.56;5032566;28;20060;-77
2022/01/10 09:10:53;;;;;;;35.33;14.35;;;;;;;-141.50;100.00;63355.56;5035043;28;20176;-78
2022/01/10 09:13:21;;;;;;;36.47;14.63;;;;;;;-141.50;100.00;63355.56;5034199;28;20053;-78
2022/01/10 09:15:47;;;;;;;35.13;14.25;;;;;;;-141.50;100.00;63355.56;5032499;28;20077;-79
2022/01/10 09:18:14;;;;;;;34.85;13.60;;;;;;;-141.50;100.00;63355.56;5066401;28;20129;-80
2022/01/10 09:20:42;;;;;;;39.92;13.95;;;;;;;-141.50;100.00;63355.56;5063963;28;20049;-79
2022/01/10 09:23:09;;;;;;;32.03;13.23;;;;;;;-141.50;100.00;63355.56;5033207;28;20080;-78
2022/01/10 09:25:36;;;;;;;37.60;15.38;;;;;;;-141.50;100.00;63355.56;5031745;28;20053;-79
2022/01/10 09:28:03;;;;;;;37.30;14.57;;;;;;;-141.50;100.00;63355.56;5033590;28;20049;-79
2022/01/10 09:30:30;;;;;;;50.13;15.50;;;;;;;-141.50;100.00;63355.56;5030288;28;20480;-78
2022/01/10 09:32:57;;;;;;;38.38;14.50;;;;;;;-141.50;100.00;63355.56;5032155;28;20529;-77
2022/01/10 09:35:24;;;;;;;37.58;15.50;;;;;;;-141.50;100.00;63355.56;5032104;28;20042;-79
2022/01/10 09:37:51;;;;;;;37.72;14.60;;;;;;;-141.50;100.00;63355.56;5034399;28;20501;-78
2022/01/10 09:40:18;;;;;;;35.25;14.10;;;;;;;-141.50;100.00;63355.56;5021500;28;20053;-76
2022/01/10 09:42:46;;;;;;;37.85;14.75;;;;;;;-141.50;100.00;63355.56;5034021;28;20049;-80
2022/01/10 09:45:13;;;;;;;38.88;14.75;;;;;;;-141.50;100.00;63355.56;5036973;28;20680;-78
2022/01/10 09:47:39;;;;;;;38.78;14.57;;;;;;;-141.50;100.00;63355.56;5038674;28;20501;-81
2022/01/10 09:50:08;;;;;;;40.13;15.88;;;;;;;-141.50;100.00;63355.56;5047845;28;20053;-79
2022/01/10 09:52:36;;;;;;;34.65;15.68;;;;;;;-141.50;100.00;63355.56;5042219;28;20073;-80
2022/01/10 09:55:03;;;;;;;48.63;16.00;;;;;;;-141.50;100.00;63355.56;5043306;28;20068;-81
2022/01/10 09:57:30;;;;;;;42.33;15.98;;;;;;;-141.50;100.00;63355.56;5040621;28;20057;-77
2022/01/10 09:59:57;;;;;;;39.78;15.85;;;;;;;-141.50;100.00;63355.56;5034112;28;20115;-78
2022/01/10 10:02:33;;;;;;;45.25;16.45;;;;;;;-141.50;100.00;63355.56;5040105;28;20057;-81
2022/01/10 10:05:05;;;;;;;44.33;16.10;;;;;;;-141.50;100.00;63355.56;5025864;28;20401;-78
2022/01/10 10:07:32;;;;;;;38.72;16.23;;;;;;;-141.50;100.00;63355.56;5021444;28;20055;-79
2022/01/10 10:10:07;;;;;;;37.33;15.85;;;;;;;-141.50;100.00;63355.56;5018180;28;20115;-79
2022/01/10 10:12:37;;;;;;;43.67;16.02;;;;;;;-141.50;100.00;63355.56;5039208;28;20079;-78
2022/01/10 10:15:06;;;;;;;39.13;14.98;;;;;;;-141.50;100.00;63355.56;5038029;28;20079;-81
2022/01/10 10:17:34;;;;;;;40.92;14.98;;;;;;;-141.50;100.00;63355.56;5031894;28;20099;-80
2022/01/10 10:20:10;;;;;;;40.35;15.55;;;;;;;-141.50;100.00;63355.56;5030673;28;20049;-81
2022/01/10 10:23:06;;;;;;;40.00;15.52;;;;;;;-141.50;100.00;63355.56;5033088;28;20049;-80
2022/01/10 10:25:37;;;;;;;41.05;14.82;;;;;;;-141.50;100.00;63355.56;5034213;28;20053;-80
2022/01/10 10:28:04;;;;;;;40.78;14.07;;;;;;;-141.50;100.00;63355.56;5039816;28;20483;-80
2022/01/10 10:30:32;;;;;;;38.22;14.57;;;;;;;-141.50;100.00;63355.56;5044327;28;20041;-80
2022/01/10 10:33:23;;;;;;;35.25;14.40;;;;;;;-141.50;100.00;63355.56;5043178;28;20434;-80
2022/01/10 10:36:03;;;;;;;43.13;15.68;;;;;;;-141.50;100.00;63355.56;5035033;28;20053;-80
2022/01/10 10:38:30;;;;;;;50.95;14.82;;;;;;;-141.50;100.00;63355.56;5052562;28;20153;-80
2022/01/10 10:41:02;;;;;;;42.75;14.55;;;;;;;-141.50;100.00;63355.56;5038935;28;20068;-79
2022/01/10 10:43:31;;;;;;;53.28;14.50;;;;;;;-141.50;100.00;63355.56;5032802;28;20327;-80
2022/01/10 10:46:03;;;;;;;45.83;15.60;;;;;;;-141.50;100.00;63355.56;5031459;28;20050;-80
2022/01/10 10:48:33;;;;;;;58.38;15.70;;;;;;;-141.50;100.00;63355.56;5033053;28;20049;-80
2022/01/10 10:51:01;;;;;;;48.35;15.90;;;;;;;-141.50;100.00;63355.56;5032873;28;20045;-79
2022/01/10 10:53:29;;;;;;;51.53;16.02;;;;;;;-141.50;100.00;63355.56;5033267;28;20583;-81
2022/01/10 10:56:02;;;;;;;48.35;15.38;;;;;;;-141.50;100.00;63355.56;5032995;28;20407;-79
2022/01/10 10:58:34;;;;;;;54.25;15.90;;;;;;;-141.50;100.00;63355.56;5032495;28;20049;-79
2022/01/10 11:01:03;;;;;;;62.20;17.15;;;;;;;-141.50;100.00;63355.56;5032815;28;20470;-79
2022/01/10 11:03:30;;;;;;;46.35;16.48;;;;;;;-141.50;100.00;63355.56;5032126;28;20060;-79
2022/01/10 11:05:59;;;;;;;53.80;17.55;;;;;;;-141.50;100.00;63355.56;5031800;28;20053;-77
2022/01/10 11:08:31;;;;;;;48.17;17.60;;;;;;;-141.50;100.00;63355.56;5031802;28;20041;-80
2022/01/10 11:11:01;;;;;;;49.70;17.77;;;;;;;-141.50;100.00;63355.56;5032554;28;20064;-79
2022/01/10 11:13:29;;;;;;;50.60;17.83;;;;;;;-141.50;100.00;63355.56;5032749;28;20053;-79
2022/01/10 11:15:57;;;;;;;66.45;18.73;;;;;;;-141.50;100.00;63355.56;5031915;28;20206;-78
2022/01/10 11:18:26;;;;;;;54.10;18.33;;;;;;;-141.50;100.00;63355.56;5048564;28;20060;-77
2022/01/10 11:20:57;;;;;;;70.70;19.92;;;;;;;-141.50;100.00;63355.56;5031143;28;20057;-78